Time;durP1;ratioP1;P1;durP2;ratioP2;P2;SDS_P1;SDS_P2;PMS_P1;PMS_P2;Temp;Humidity;BMP_temperature;BMP_pressure;BME280_temperature;BME280_humidity;BME280_pressure;Samples;Min_cycle;Max_cycle;Signal;HPM_P1;HPM_P2
2022/08/19 00:01:54;;;;;;;;;20.00;16.67;;;;;-147.47;100.00;64613.53;5043869;28;45991;-78
2022/08/19 00:04:24;;;;;;;;;18.67;17.33;;;;;-147.47;100.00;64613.53;5052201;28;45428;-81
2022/08/19 00:06:49;;;;;;;;;17.33;17.33;;;;;-147.47;100.00;64613.53;5034936;28;45515;-79
2022/08/19 00:09:17;;;;;;;;;20.33;16.00;;;;;-147.47;100.00;64613.53;5053084;28;45382;-79
2022/08/19 00:11:44;;;;;;;;;16.33;16.33;;;;;-147.47;100.00;64613.53;5054464;28;45449;-80
2022/08/19 00:14:11;;;;;;;;;20.33;15.00;;;;;-147.47;100.00;64613.53;5054722;28;45413;-80
2022/08/19 00:16:38;;;;;;;;;28.33;18.00;;;;;-147.47;100.00;64613.53;5053826;28;45392;-79
2022/08/19 00:19:04;;;;;;;;;19.00;15.00;;;;;-147.47;100.00;64613.53;5053198;28;45372;-78
2022/08/19 00:21:30;;;;;;;;;12.67;12.67;;;;;-147.47;100.00;64613.53;5037223;28;46525;-79
2022/08/19 00:23:57;;;;;;;;;18.67;16.00;;;;;-147.47;100.00;64613.53;5050415;28;46122;-79
2022/08/19 00:26:24;;;;;;;;;17.33;14.67;;;;;-147.47;100.00;64613.53;5018541;28;44732;-79
2022/08/19 00:28:50;;;;;;;;;22.67;16.33;;;;;-147.47;100.00;64613.53;5035722;28;45416;-79
2022/08/19 00:31:16;;;;;;;;;19.33;15.33;;;;;-147.47;100.00;64613.53;5019049;28;45425;-77
2022/08/19 00:33:41;;;;;;;;;20.33;17.67;;;;;-147.47;100.00;64613.53;5036861;28;45011;-77
2022/08/19 00:36:09;;;;;;;;;17.00;14.67;;;;;-147.47;100.00;64613.53;5036934;28;44774;-78
2022/08/19 00:38:37;;;;;;;;;23.33;16.33;;;;;-147.47;100.00;64613.53;5019089;28;45331;-78
2022/08/19 00:41:05;;;;;;;;;15.67;14.67;;;;;-147.47;100.00;64613.53;5034587;28;45501;-78
2022/08/19 00:43:31;;;;;;;;;18.00;16.67;;;;;-147.47;100.00;64613.53;5006688;28;47149;-80
2022/08/19 00:45:56;;;;;;;;;17.67;15.00;;;;;-147.47;100.00;64613.53;5034705;28;45380;-79
2022/08/19 00:48:23;;;;;;;;;14.67;14.67;;;;;-147.47;100.00;64613.53;5024579;28;44788;-78
2022/08/19 00:50:52;;;;;;;;;21.00;17.00;;;;;-147.47;100.00;64613.53;5034909;28;45514;-78
2022/08/19 00:53:21;;;;;;;;;18.67;17.00;;;;;-147.47;100.00;64613.53;5017782;28;47413;-78
2022/08/19 00:55:49;;;;;;;;;18.00;16.33;;;;;-147.47;100.00;64613.53;5034550;28;44756;-79
2022/08/19 00:58:18;;;;;;;;;13.67;13.67;;;;;-147.47;100.00;64613.53;5017959;28;45186;-80
2022/08/19 01:00:46;;;;;;;;;17.67;14.00;;;;;-147.47;100.00;64613.53;5035953;28;44821;-80
2022/08/19 01:03:16;;;;;;;;;17.00;15.00;;;;;-147.47;100.00;64613.53;5036013;28;45396;-80
2022/08/19 01:05:44;;;;;;;;;17.33;17.33;;;;;-147.47;100.00;64613.53;5024953;28;44712;-78
2022/08/19 01:08:10;;;;;;;;;14.67;12.67;;;;;-147.47;100.00;64613.53;5015572;28;44780;-78
2022/08/19 01:10:45;;;;;;;;;12.33;12.33;;;;;-147.47;100.00;64613.53;5016079;28;45492;-78
2022/08/19 01:13:13;;;;;;;;;13.00;12.33;;;;;-147.47;100.00;64613.53;5017453;28;46289;-79
2022/08/19 01:15:44;;;;;;;;;13.67;11.67;;;;;-147.47;100.00;64613.53;5017703;28;44924;-80
2022/08/19 01:18:13;;;;;;;;;17.00;14.67;;;;;-147.47;100.00;64613.53;5034970;28;45455;-78
2022/08/19 01:20:41;;;;;;;;;10.00;9.00;;;;;-147.47;100.00;64613.53;5035643;28;45384;-79
2022/08/19 01:23:06;;;;;;;;;11.33;10.00;;;;;-147.47;100.00;64613.53;5013009;28;46266;-77
2022/08/19 01:25:39;;;;;;;;;15.67;13.00;;;;;-147.47;100.00;64613.53;5029255;28;45622;-76
2022/08/19 01:28:04;;;;;;;;;16.67;12.33;;;;;-147.47;100.00;64613.53;5053196;28;45424;-77
2022/08/19 01:30:33;;;;;;;;;14.00;11.33;;;;;-147.47;100.00;64613.53;5052971;28;45449;-77
2022/08/19 01:33:00;;;;;;;;;13.67;12.33;;;;;-147.47;100.00;64613.53;5052087;28;45368;-76
2022/08/19 01:35:28;;;;;;;;;10.67;9.67;;;;;-147.47;100.00;64613.53;5053144;28;45324;-76
2022/08/19 01:37:57;;;;;;;;;14.00;11.33;;;;;-147.47;100.00;64613.53;5035545;28;45382;-77
2022/08/19 01:40:25;;;;;;;;;14.33;12.00;;;;;-147.47;100.00;64613.53;5052835;28;45293;-74
2022/08/19 01:42:52;;;;;;;;;14.33;11.67;;;;;-147.47;100.00;64613.53;5051509;28;46828;-76
2022/08/19 01:45:19;;;;;;;;;14.33;12.33;;;;;-147.47;100.00;64613.53;5035318;28;44741;-76
2022/08/19 01:47:45;;;;;;;;;11.67;9.67;;;;;-147.47;100.00;64613.53;5052241;28;44814;-77
2022/08/19 01:50:11;;;;;;;;;19.00;12.67;;;;;-147.47;100.00;64613.53;5052875;28;45245;-75
2022/08/19 01:52:38;;;;;;;;;15.33;13.00;;;;;-147.47;100.00;64613.53;5035294;28;45459;-76
2022/08/19 01:55:06;;;;;;;;;10.33;8.33;;;;;-147.47;100.00;64613.53;5032789;28;45728;-77
2022/08/19 01:57:32;;;;;;;;;14.67;13.33;;;;;-147.47;100.00;64613.53;5048446;28;45094;-76
2022/08/19 01:59:59;;;;;;;;;13.00;11.00;;;;;-147.47;100.00;64613.53;5035014;28;45750;-76
2022/08/19 02:02:24;;;;;;;;;11.67;10.33;;;;;-147.47;100.00;64613.53;5050452;28;47414;-76
2022/08/19 02:04:50;;;;;;;;;11.67;11.67;;;;;-147.47;100.00;64613.53;5052389;28;45178;-76
2022/08/19 02:07:20;;;;;;;;;11.67;11.33;;;;;-147.47;100.00;64613.53;5052971;28;44955;-76
2022/08/19 02:09:47;;;;;;;;;12.33;11.33;;;;;-147.47;100.00;64613.53;5033489;28;45496;-76
2022/08/19 02:12:12;;;;;;;;;15.67;11.67;;;;;-147.47;100.00;64613.53;5038511;28;46415;-77
2022/08/19 02:14:38;;;;;;;;;10.33;9.00;;;;;-147.47;100.00;64613.53;5026269;28;45432;-75
2022/08/19 02:17:03;;;;;;;;;19.33;14.00;;;;;-147.47;100.00;64613.53;5049209;28;45284;-74
2022/08/19 02:19:30;;;;;;;;;15.67;13.00;;;;;-147.47;100.00;64613.53;5053301;28;44831;-74
2022/08/19 02:21:55;;;;;;;;;12.67;12.00;;;;;-147.47;100.00;64613.53;5053636;28;45423;-75
2022/08/19 02:24:21;;;;;;;;;14.00;11.67;;;;;-147.47;100.00;64613.53;5055343;28;45791;-75
2022/08/19 02:26:46;;;;;;;;;11.00;11.00;;;;;-147.47;100.00;64613.53;5042144;28;45879;-76
2022/08/19 02:29:11;;;;;;;;;11.67;11.00;;;;;-147.47;100.00;64613.53;5056437;28;45299;-76
2022/08/19 02:31:37;;;;;;;;;11.00;10.67;;;;;-147.47;100.00;64613.53;5050827;28;44917;-77
2022/08/19 02:34:03;;;;;;;;;11.00;9.00;;;;;-147.47;100.00;64613.53;5056218;28;45237;-77
2022/08/19 02:36:28;;;;;;;;;11.67;10.67;;;;;-147.47;100.00;64613.53;5041778;28;45310;-77
2022/08/19 02:38:54;;;;;;;;;11.00;10.33;;;;;-147.47;100.00;64613.53;5055340;28;46264;-77
2022/08/19 02:41:24;;;;;;;;;12.33;11.33;;;;;-147.47;100.00;64613.53;5055643;28;45639;-77
2022/08/19 02:43:49;;;;;;;;;13.33;12.00;;;;;-147.47;100.00;64613.53;5046356;28;44847;-78
2022/08/19 02:46:28;;;;;;;;;12.00;11.00;;;;;-147.47;100.00;64613.53;5033508;28;45493;-76
2022/08/19 02:49:00;;;;;;;;;12.67;12.67;;;;;-147.47;100.00;64613.53;5046683;28;45377;-74
2022/08/19 02:51:38;;;;;;;;;16.33;13.33;;;;;-147.47;100.00;64613.53;5037394;28;47109;-76
2022/08/19 02:54:05;;;;;;;;;11.67;11.33;;;;;-147.47;100.00;64613.53;5055058;28;45475;-76
2022/08/19 02:56:33;;;;;;;;;15.67;13.67;;;;;-147.47;100.00;64613.53;5054686;28;45312;-77
2022/08/19 02:58:59;;;;;;;;;12.33;12.33;;;;;-147.47;100.00;64613.53;5055036;28;44835;-76
2022/08/19 03:01:27;;;;;;;;;11.33;10.67;;;;;-147.47;100.00;64613.53;5041616;28;45127;-76
2022/08/19 03:03:55;;;;;;;;;11.67;11.67;;;;;-147.47;100.00;64613.53;5028982;28;45716;-76
2022/08/19 03:06:21;;;;;;;;;16.33;12.67;;;;;-147.47;100.00;64613.53;5054288;28;45426;-75
2022/08/19 03:08:49;;;;;;;;;12.33;11.33;;;;;-147.47;100.00;64613.53;5055256;28;45427;-75
2022/08/19 03:11:24;;;;;;;;;17.00;12.67;;;;;-147.47;100.00;64613.53;5037094;28;46961;-75
2022/08/19 03:13:50;;;;;;;;;18.33;14.00;;;;;-147.47;100.00;64613.53;5055381;28;45245;-76
2022/08/19 03:16:18;;;;;;;;;10.67;10.67;;;;;-147.47;100.00;64613.53;5034495;28;45495;-76
2022/08/19 03:18:44;;;;;;;;;12.67;10.67;;;;;-147.47;100.00;64613.53;5047745;28;44847;-77
2022/08/19 03:21:16;;;;;;;;;17.33;15.33;;;;;-147.47;100.00;64613.53;5036133;28;47141;-76
2022/08/19 03:23:41;;;;;;;;;11.33;10.00;;;;;-147.47;100.00;64613.53;5053347;28;45365;-75
2022/08/19 03:26:06;;;;;;;;;10.67;10.67;;;;;-147.47;100.00;64613.53;5047232;28;45438;-77
2022/08/19 03:28:32;;;;;;;;;13.00;12.67;;;;;-147.47;100.00;64613.53;5053323;28;44815;-76
2022/08/19 03:31:06;;;;;;;;;11.33;11.33;;;;;-147.47;100.00;64613.53;5034056;28;47165;-77
2022/08/19 03:33:33;;;;;;;;;10.33;10.33;;;;;-147.47;100.00;64613.53;5054987;28;45388;-76
2022/08/19 03:36:14;;;;;;;;;16.33;13.67;;;;;-147.47;100.00;64613.53;5031173;28;45494;-76
2022/08/19 03:38:42;;;;;;;;;9.33;8.33;;;;;-147.47;100.00;64613.53;5046001;28;45359;-76
2022/08/19 03:41:11;;;;;;;;;9.33;9.33;;;;;-147.47;100.00;64613.53;5053369;28;45691;-76
2022/08/19 03:43:38;;;;;;;;;14.67;10.33;;;;;-147.47;100.00;64613.53;5053784;28;45342;-77
2022/08/19 03:46:06;;;;;;;;;11.33;11.33;;;;;-147.47;100.00;64613.53;5052990;28;44800;-75
2022/08/19 03:48:33;;;;;;;;;12.33;12.33;;;;;-147.47;100.00;64613.53;5065891;28;45526;-78
2022/08/19 03:51:00;;;;;;;;;13.00;13.00;;;;;-147.47;100.00;64613.53;5065758;28;46415;-77
2022/08/19 03:53:27;;;;;;;;;10.67;10.33;;;;;-147.47;100.00;64613.53;5055059;28;44801;-75
2022/08/19 03:55:53;;;;;;;;;12.33;10.67;;;;;-147.47;100.00;64613.53;5054020;28;44805;-76
2022/08/19 03:58:19;;;;;;;;;9.50;8.50;;;;;-147.47;100.00;64613.53;5035487;28;45641;-76
2022/08/19 04:00:44;;;;;;;;;9.33;9.33;;;;;-147.47;100.00;64613.53;5053770;28;45333;-76
2022/08/19 04:03:10;;;;;;;;;10.00;9.33;;;;;-147.47;100.00;64613.53;5050491;28;45367;-76
2022/08/19 04:05:37;;;;;;;;;8.67;8.67;;;;;-147.47;100.00;64613.53;5035954;28;44732;-76
2022/08/19 04:08:05;;;;;;;;;13.33;10.33;;;;;-147.47;100.00;64613.53;5038033;28;46357;-78
2022/08/19 04:10:35;;;;;;;;;15.33;12.33;;;;;-147.47;100.00;64613.53;5050771;28;46431;-74
2022/08/19 04:13:00;;;;;;;;;8.00;8.00;;;;;-147.47;100.00;64613.53;5053791;28;44729;-78
2022/08/19 04:15:28;;;;;;;;;12.67;12.67;;;;;-147.47;100.00;64613.53;5051191;28;44951;-78
2022/08/19 04:17:54;;;;;;;;;9.33;9.00;;;;;-147.47;100.00;64613.53;5047150;28;45661;-76
2022/08/19 04:20:20;;;;;;;;;10.33;10.33;;;;;-147.47;100.00;64613.53;5054503;28;45512;-76
2022/08/19 04:22:45;;;;;;;;;14.00;11.00;;;;;-147.47;100.00;64613.53;5038320;28;44705;-77
2022/08/19 04:25:11;;;;;;;;;9.33;8.67;;;;;-147.47;100.00;64613.53;5038809;28;45473;-78
2022/08/19 04:27:37;;;;;;;;;12.33;10.67;;;;;-147.47;100.00;64613.53;5039227;28;44974;-77
2022/08/19 04:30:03;;;;;;;;;11.67;11.00;;;;;-147.47;100.00;64613.53;5038998;28;47005;-78
2022/08/19 04:32:31;;;;;;;;;9.00;9.00;;;;;-147.47;100.00;64613.53;5037774;28;44905;-78
2022/08/19 04:34:58;;;;;;;;;6.33;6.33;;;;;-147.47;100.00;64613.53;5055444;28;44735;-77
2022/08/19 04:37:24;;;;;;;;;7.67;7.67;;;;;-147.47;100.00;64613.53;5038428;28;45714;-77
2022/08/19 04:42:41;;;;;;;;;9.33;7.00;;;;;-147.47;100.00;64613.53;5004196;28;45392;-77
2022/08/19 04:45:13;;;;;;;;;9.33;7.67;;;;;-147.47;100.00;64613.53;5052315;28;45361;-76
2022/08/19 04:47:44;;;;;;;;;7.33;7.33;;;;;-147.47;100.00;64613.53;5030854;28;45436;-80
2022/08/19 04:50:11;;;;;;;;;10.00;7.67;;;;;-147.47;100.00;64613.53;5043265;28;47222;-78
2022/08/19 04:52:41;;;;;;;;;8.67;7.00;;;;;-147.47;100.00;64613.53;5058227;28;44765;-77
2022/08/19 04:55:07;;;;;;;;;8.67;8.00;;;;;-147.47;100.00;64613.53;5054968;28;44717;-77
2022/08/19 04:57:33;;;;;;;;;9.00;9.00;;;;;-147.47;100.00;64613.53;5023841;28;46043;-77
2022/08/19 04:59:58;;;;;;;;;10.00;8.33;;;;;-147.47;100.00;64613.53;5021402;28;46917;-77
2022/08/19 05:02:25;;;;;;;;;7.00;7.00;;;;;-147.47;100.00;64613.53;5054387;28;44707;-76
2022/08/19 05:04:56;;;;;;;;;7.67;6.33;;;;;-147.47;100.00;64613.53;5037069;28;44767;-77
2022/08/19 05:07:22;;;;;;;;;12.33;7.00;;;;;-147.47;100.00;64613.53;5055665;28;44763;-78
2022/08/19 05:09:48;;;;;;;;;7.33;7.33;;;;;-147.47;100.00;64613.53;5056679;28;45470;-77
2022/08/19 05:12:13;;;;;;;;;6.67;5.00;;;;;-147.47;100.00;64613.53;5055930;28;45273;-78
2022/08/19 05:14:38;;;;;;;;;7.67;7.67;;;;;-147.47;100.00;64613.53;5054311;28;45293;-76
2022/08/19 05:17:04;;;;;;;;;9.33;6.33;;;;;-147.47;100.00;64613.53;5053811;28;44748;-76
2022/08/19 05:22:35;;;;;;;;;4.00;4.00;;;;;-147.47;100.00;64613.53;5053112;28;45308;-77
2022/08/19 05:25:11;;;;;;;;;7.67;6.33;;;;;-147.47;100.00;64613.53;5053899;28;45778;-77
2022/08/19 05:27:39;;;;;;;;;9.67;8.00;;;;;-147.47;100.00;64613.53;5054721;28;45094;-78
2022/08/19 05:30:05;;;;;;;;;6.00;6.00;;;;;-147.47;100.00;64613.53;5057254;28;44986;-78
2022/08/19 05:32:31;;;;;;;;;7.00;6.33;;;;;-147.47;100.00;64613.53;5054210;28;45345;-79
2022/08/19 05:34:56;;;;;;;;;6.67;4.33;;;;;-147.47;100.00;64613.53;5052650;28;45403;-77
2022/08/19 05:37:22;;;;;;;;;6.00;4.67;;;;;-147.47;100.00;64613.53;5037006;28;46005;-78
2022/08/19 05:39:48;;;;;;;;;6.67;5.00;;;;;-147.47;100.00;64613.53;5037997;28;47124;-78
2022/08/19 05:42:15;;;;;;;;;4.33;4.33;;;;;-147.47;100.00;64613.53;5032361;28;44941;-78
2022/08/19 05:44:43;;;;;;;;;6.00;3.50;;;;;-147.47;100.00;64613.53;5053345;28;45498;-78
2022/08/19 05:47:10;;;;;;;;;6.33;5.00;;;;;-147.47;100.00;64613.53;5041720;28;44824;-81
2022/08/19 05:49:37;;;;;;;;;4.25;4.25;;;;;-147.47;100.00;64613.53;5035976;28;48534;-78
2022/08/19 05:52:10;;;;;;;;;6.67;5.00;;;;;-147.47;100.00;64613.53;5054987;28;45375;-77
2022/08/19 05:54:39;;;;;;;;;5.25;5.25;;;;;-147.47;100.00;64613.53;5026541;28;44694;-77
2022/08/19 05:57:06;;;;;;;;;5.33;5.33;;;;;-147.47;100.00;64613.53;5052655;28;45501;-77
2022/08/19 05:59:32;;;;;;;;;4.00;4.00;;;;;-147.47;100.00;64613.53;5053141;28;46536;-76
2022/08/19 06:01:59;;;;;;;;;6.00;6.00;;;;;-147.47;100.00;64613.53;5039399;28;44754;-77
2022/08/19 06:04:25;;;;;;;;;5.00;3.00;;;;;-147.47;100.00;64613.53;5053895;28;45349;-77
2022/08/19 06:06:53;;;;;;;;;4.33;3.00;;;;;-147.47;100.00;64613.53;5054211;28;45219;-77
2022/08/19 06:09:20;;;;;;;;;7.00;5.00;;;;;-147.47;100.00;64613.53;5062609;28;45304;-80
2022/08/19 06:11:49;;;;;;;;;5.00;4.50;;;;;-147.47;100.00;64613.53;5035607;28;45427;-81
2022/08/19 06:14:20;;;;;;;;;4.00;4.00;;;;;-147.47;100.00;64613.53;5046165;28;45305;-80
2022/08/19 06:16:46;;;;;;;;;6.00;6.00;;;;;-147.47;100.00;64613.53;5038026;28;46244;-79
2022/08/19 06:19:16;;;;;;;;;5.67;5.67;;;;;-147.47;100.00;64613.53;5056268;28;45466;-80
2022/08/19 06:21:44;;;;;;;;;4.33;4.00;;;;;-147.47;100.00;64613.53;5051938;28;45275;-80
2022/08/19 06:24:12;;;;;;;;;5.00;5.00;;;;;-147.47;100.00;64613.53;5054968;28;45407;-80
2022/08/19 06:26:40;;;;;;;;;7.00;6.00;;;;;-147.47;100.00;64613.53;5042044;28;44969;-80
2022/08/19 06:29:07;;;;;;;;;6.67;5.67;;;;;-147.47;100.00;64613.53;5027772;28;46906;-81
2022/08/19 06:31:34;;;;;;;;;4.33;3.33;;;;;-147.47;100.00;64613.53;5074155;28;44788;-80
2022/08/19 06:34:02;;;;;;;;;6.25;4.50;;;;;-147.47;100.00;64613.53;5042948;28;45356;-80
2022/08/19 06:36:33;;;;;;;;;4.00;4.00;;;;;-147.47;100.00;64613.53;5023362;28;45384;-80
2022/08/19 06:39:01;;;;;;;;;3.50;2.50;;;;;-147.47;100.00;64613.53;5055518;28;45188;-80
2022/08/19 06:41:28;;;;;;;;;3.25;3.25;;;;;-147.47;100.00;64613.53;5055513;28;45467;-79
2022/08/19 06:43:54;;;;;;;;;2.00;2.00;;;;;-147.47;100.00;64613.53;5055123;28;45348;-80
2022/08/19 06:46:20;;;;;;;;;3.25;3.25;;;;;-147.47;100.00;64613.53;5055538;28;45796;-80
2022/08/19 06:48:47;;;;;;;;;2.00;2.00;;;;;-147.47;100.00;64613.53;5054946;28;45165;-81
2022/08/19 06:51:20;;;;;;;;;2.50;2.50;;;;;-147.47;100.00;64613.53;5054309;28;45355;-80
2022/08/19 06:53:50;;;;;;;;;2.75;2.75;;;;;-147.47;100.00;64613.53;5046778;28;44883;-80
2022/08/19 06:56:19;;;;;;;;;3.00;3.00;;;;;-147.47;100.00;64613.53;5057595;28;45431;-78
2022/08/19 06:58:46;;;;;;;;;4.75;2.25;;;;;-147.47;100.00;64613.53;5056999;28;45293;-77
2022/08/19 07:01:11;;;;;;;;;2.25;2.25;;;;;-147.47;100.00;64613.53;5052068;28;45309;-78
2022/08/19 07:03:41;;;;;;;;;2.00;2.00;;;;;-147.47;100.00;64613.53;5056742;28;45163;-80
2022/08/19 07:06:09;;;;;;;;;2.75;2.00;;;;;-147.47;100.00;64613.53;5059527;28;45101;-81
2022/08/19 07:08:42;;;;;;;;;1.00;1.00;;;;;-147.47;100.00;64613.53;5040409;28;46237;-78
2022/08/19 07:11:12;;;;;;;;;2.00;2.00;;;;;-147.47;100.00;64613.53;5056245;28;45091;-78
2022/08/19 07:13:39;;;;;;;;;2.50;1.75;;;;;-147.47;100.00;64613.53;5056475;28;44685;-78
2022/08/19 07:16:07;;;;;;;;;2.00;1.00;;;;;-147.47;100.00;64613.53;5057622;28;45234;-77
2022/08/19 07:18:33;;;;;;;;;0.00;0.00;;;;;-147.47;100.00;64613.53;5039254;28;47442;-77
2022/08/19 07:21:11;;;;;;;;;3.00;1.00;;;;;-147.47;100.00;64613.53;5056570;28;44750;-77
2022/08/19 07:23:36;;;;;;;;;2.00;2.00;;;;;-147.47;100.00;64613.53;5040060;28;45417;-78
2022/08/19 07:26:19;;;;;;;;;1.25;1.00;;;;;-147.47;100.00;64613.53;5056981;28;45514;-78
2022/08/19 07:28:45;;;;;;;;;1.00;1.00;;;;;-147.47;100.00;64613.53;5046864;28;45503;-77
2022/08/19 07:31:13;;;;;;;;;1.00;1.00;;;;;-147.47;100.00;64613.53;5056284;28;44721;-77
2022/08/19 07:33:40;;;;;;;;;2.00;2.00;;;;;-147.47;100.00;64613.53;5052528;28;44759;-77
2022/08/19 07:36:11;;;;;;;;;1.25;1.25;;;;;-147.47;100.00;64613.53;5037709;28;45415;-77
2022/08/19 07:38:39;;;;;;;;;1.00;1.00;;;;;-147.47;100.00;64613.53;5055647;28;46333;-79
2022/08/19 07:41:05;;;;;;;;;1.00;1.00;;;;;-147.47;100.00;64613.53;5055885;28;44794;-79
2022/08/19 07:43:31;;;;;;;;;2.25;1.25;;;;;-147.47;100.00;64613.53;5048997;28;44737;-80
2022/08/19 07:45:57;;;;;;;;;1.00;1.00;;;;;-147.47;100.00;64613.53;5036808;28;46049;-78
2022/08/19 07:48:25;;;;;;;;;1.00;1.00;;;;;-147.47;100.00;64613.53;5052577;28;46487;-80
2022/08/19 07:50:54;;;;;;;;;1.50;1.00;;;;;-147.47;100.00;64613.53;5058220;28;44738;-81
2022/08/19 07:53:22;;;;;;;;;1.00;1.00;;;;;-147.47;100.00;64613.53;5041335;28;45309;-79
2022/08/19 07:55:48;;;;;;;;;2.50;2.50;;;;;-147.47;100.00;64613.53;5040609;28;46222;-80
2022/08/19 07:58:15;;;;;;;;;1.00;1.00;;;;;-147.47;100.00;64613.53;5057920;28;45429;-78
2022/08/19 08:00:43;;;;;;;;;1.00;1.00;;;;;-147.47;100.00;64613.53;5054839;28;44963;-77
2022/08/19 08:03:09;;;;;;;;;2.50;1.00;;;;;-147.47;100.00;64613.53;5054351;28;45464;-77
2022/08/19 08:11:05;;;;;;;;;1.00;1.00;;;;;-147.47;100.00;64613.53;5035924;28;44826;-78
2022/08/19 08:13:32;;;;;;;;;1.50;1.00;;;;;-147.47;100.00;64613.53;5036644;28;44970;-80
2022/08/19 08:15:58;;;;;;;;;1.00;1.00;;;;;-147.47;100.00;64613.53;5050509;28;45702;-78
2022/08/19 08:18:24;;;;;;;;;1.25;0.25;;;;;-147.47;100.00;64613.53;5052671;28;45392;-78
2022/08/19 08:20:50;;;;;;;;;0.00;0.00;;;;;-147.47;100.00;64613.53;5056642;28;45221;-79
2022/08/19 08:23:24;;;;;;;;;2.25;2.25;;;;;-147.47;100.00;64613.53;5045122;28;44841;-79
2022/08/19 08:25:50;;;;;;;;;0.00;0.00;;;;;-147.47;100.00;64613.53;5057037;28;45419;-79
2022/08/19 08:28:17;;;;;;;;;2.50;1.00;;;;;-147.47;100.00;64613.53;5049094;28;47212;-78
2022/08/19 08:30:45;;;;;;;;;1.50;0.50;;;;;-147.47;100.00;64613.53;5034426;28;44765;-78
2022/08/19 08:33:10;;;;;;;;;1.00;1.00;;;;;-147.47;100.00;64613.53;5047425;28;45391;-79
2022/08/19 08:35:36;;;;;;;;;0.00;0.00;;;;;-147.47;100.00;64613.53;5052948;28;45419;-79
2022/08/19 08:38:04;;;;;;;;;0.50;0.50;;;;;-147.47;100.00;64613.53;5045115;28;46325;-78
2022/08/19 08:40:41;;;;;;;;;0.00;0.00;;;;;-147.47;100.00;64613.53;5047280;28;45420;-82
2022/08/19 08:43:23;;;;;;;;;1.50;0.75;;;;;-147.47;100.00;64613.53;5048590;28;44790;-78
2022/08/19 08:46:03;;;;;;;;;1.50;1.50;;;;;-147.47;100.00;64613.53;5037312;28;46437;-82
2022/08/19 08:48:31;;;;;;;;;0.00;0.00;;;;;-147.47;100.00;64613.53;5034014;28;47223;-80
2022/08/19 08:50:58;;;;;;;;;1.00;0.00;;;;;-147.47;100.00;64613.53;5051591;28;44946;-82
2022/08/19 08:53:25;;;;;;;;;2.00;2.00;;;;;-147.47;100.00;64613.53;5054730;28;45455;-80
2022/08/19 08:55:51;;;;;;;;;2.00;1.00;;;;;-147.47;100.00;64613.53;5055549;28;45354;-80
2022/08/19 08:58:26;;;;;;;;;1.75;1.75;;;;;-147.47;100.00;64613.53;5047346;28;45145;-80
2022/08/19 09:00:53;;;;;;;;;0.25;0.25;;;;;-147.47;100.00;64613.53;5058550;28;45444;-79
2022/08/19 09:03:27;;;;;;;;;0.00;0.00;;;;;-147.47;100.00;64613.53;5046574;28;45650;-81
2022/08/19 09:06:01;;;;;;;;;0.25;0.25;;;;;-147.47;100.00;64613.53;5037730;28;45404;-81
2022/08/19 09:08:55;;;;;;;;;0.75;0.75;;;;;-147.47;100.00;64613.53;5050551;28;45668;-79
2022/08/19 09:11:50;;;;;;;;;2.00;2.00;;;;;-147.47;100.00;64613.53;5039886;28;44793;-80
2022/08/19 09:14:37;;;;;;;;;1.00;1.00;;;;;-147.47;100.00;64613.53;5037704;28;45356;-80
2022/08/19 09:17:07;;;;;;;;;1.00;1.00;;;;;-147.47;100.00;64613.53;5034219;28;45360;-79
2022/08/19 09:19:34;;;;;;;;;1.00;1.00;;;;;-147.47;100.00;64613.53;5053108;28;45251;-80
2022/08/19 09:22:00;;;;;;;;;3.00;2.00;;;;;-147.47;100.00;64613.53;5036985;28;45483;-80
2022/08/19 09:24:26;;;;;;;;;1.00;1.00;;;;;-147.47;100.00;64613.53;5031744;28;44804;-81
2022/08/19 09:26:54;;;;;;;;;1.00;1.00;;;;;-147.47;100.00;64613.53;5051692;28;46527;-79
2022/08/19 09:29:20;;;;;;;;;1.00;1.00;;;;;-147.47;100.00;64613.53;5038517;28;46283;-80
2022/08/19 09:31:46;;;;;;;;;3.00;2.00;;;;;-147.47;100.00;64613.53;5042725;28;44861;-79
2022/08/19 09:34:12;;;;;;;;;2.00;0.25;;;;;-147.47;100.00;64613.53;5038414;28;44734;-80
2022/08/19 09:36:38;;;;;;;;;3.00;0.25;;;;;-147.47;100.00;64613.53;5050608;28;44844;-79
2022/08/19 09:39:06;;;;;;;;;2.00;2.00;;;;;-147.47;100.00;64613.53;5042636;28;45762;-79
2022/08/19 09:41:32;;;;;;;;;1.00;1.00;;;;;-147.47;100.00;64613.53;5049449;28;44905;-79
2022/08/19 09:44:02;;;;;;;;;2.00;2.00;;;;;-147.47;100.00;64613.53;5057198;28;45415;-82
2022/08/19 09:46:30;;;;;;;;;2.50;1.00;;;;;-147.47;100.00;64613.53;5056823;28;44786;-80
2022/08/19 09:48:59;;;;;;;;;2.50;1.25;;;;;-147.47;100.00;64613.53;5046335;28;46040;-83
2022/08/19 09:51:30;;;;;;;;;0.50;0.50;;;;;-147.47;100.00;64613.53;5056773;28;44967;-81
2022/08/19 09:54:00;;;;;;;;;3.00;1.75;;;;;-147.47;100.00;64613.53;5054421;28;45423;-81
2022/08/19 09:56:26;;;;;;;;;1.00;1.00;;;;;-147.47;100.00;64613.53;5057313;28;44712;-81
2022/08/19 09:58:52;;;;;;;;;1.25;0.25;;;;;-147.47;100.00;64613.53;5058781;28;44917;-80
2022/08/19 10:01:26;;;;;;;;;1.00;1.00;;;;;-147.47;100.00;64613.53;5029401;28;44731;-83
2022/08/19 10:03:54;;;;;;;;;3.25;2.25;;;;;-147.47;100.00;64613.53;5057301;28;44675;-81
2022/08/19 10:06:33;;;;;;;;;1.00;1.00;;;;;-147.47;100.00;64613.53;5058163;28;45049;-81
2022/08/19 10:09:04;;;;;;;;;2.75;1.50;;;;;-147.47;100.00;64613.53;5038780;28;45387;-81
2022/08/19 10:11:47;;;;;;;;;2.00;2.00;;;;;-147.47;100.00;64613.53;5039887;28;44793;-83
2022/08/19 10:14:14;;;;;;;;;3.00;1.25;;;;;-147.47;100.00;64613.53;5025222;28;45471;-80
2022/08/19 10:16:43;;;;;;;;;1.50;1.50;;;;;-147.47;100.00;64613.53;5037429;28;45104;-82
2022/08/19 10:19:09;;;;;;;;;1.00;1.00;;;;;-147.47;100.00;64613.53;5028331;28;45168;-84
2022/08/19 10:21:36;;;;;;;;;1.00;1.00;;;;;-147.47;100.00;64613.53;5057304;28;44702;-81
2022/08/19 10:24:17;;;;;;;;;2.50;1.00;;;;;-147.47;100.00;64613.53;5040084;28;44806;-80
2022/08/19 10:26:47;;;;;;;;;2.75;2.75;;;;;-147.47;100.00;64613.53;5058146;28;44690;-80
2022/08/19 10:29:17;;;;;;;;;1.25;1.25;;;;;-147.47;100.00;64613.53;5058688;28;45419;-80
2022/08/19 10:31:43;;;;;;;;;2.00;2.00;;;;;-147.47;100.00;64613.53;5064353;28;45303;-80
2022/08/19 10:34:09;;;;;;;;;1.25;1.25;;;;;-147.47;100.00;64613.53;5048229;28;44687;-80
2022/08/19 10:36:39;;;;;;;;;1.00;1.00;;;;;-147.47;100.00;64613.53;5058905;28;44908;-78
2022/08/19 10:39:12;;;;;;;;;1.00;1.00;;;;;-147.47;100.00;64613.53;5059149;28;45782;-81
2022/08/19 10:41:50;;;;;;;;;0.25;0.25;;;;;-147.47;100.00;64613.53;5059007;28;44825;-80
2022/08/19 10:44:22;;;;;;;;;0.00;0.00;;;;;-147.47;100.00;64613.53;5058560;28;44884;-80
2022/08/19 10:46:58;;;;;;;;;1.00;1.00;;;;;-147.47;100.00;64613.53;5057760;28;45356;-80
2022/08/19 10:49:24;;;;;;;;;1.00;1.00;;;;;-147.47;100.00;64613.53;5035749;28;45240;-80
2022/08/19 10:57:34;;;;;;;;;0.00;0.00;;;;;-147.47;100.00;64613.53;5038719;28;44961;-82
2022/08/19 11:00:12;;;;;;;;;1.00;1.00;;;;;-147.47;100.00;64613.53;5057762;28;45266;-80
2022/08/19 11:02:54;;;;;;;;;0.00;0.00;;;;;-147.47;100.00;64613.53;5044280;28;44789;-80
2022/08/19 11:05:26;;;;;;;;;0.75;0.75;;;;;-147.47;100.00;64613.53;5062899;28;44731;-82
2022/08/19 11:08:23;;;;;;;;;1.00;1.00;;;;;-147.47;100.00;64613.53;5068234;28;45355;-82
2022/08/19 11:11:10;;;;;;;;;;;;;;;;;;;;;
2022/08/19 11:13:52;;;;;;;;;0.00;0.00;;;;;-147.47;100.00;64613.53;5050353;28;73136;-82
2022/08/19 11:20:11;;;;;;;;;1.75;1.75;;;;;-147.47;100.00;64613.53;4979615;28;45540;-81
2022/08/19 11:22:38;;;;;;;;;2.25;1.00;;;;;-147.47;100.00;64613.53;4981067;28;45302;-80
2022/08/19 11:25:05;;;;;;;;;0.75;0.75;;;;;-147.47;100.00;64613.53;5037493;28;44841;-79
2022/08/19 11:27:44;;;;;;;;;0.25;0.25;;;;;-147.47;100.00;64613.53;5039235;28;45499;-81
2022/08/19 11:30:17;;;;;;;;;3.00;1.00;;;;;-147.47;100.00;64613.53;5026390;28;45188;-80
2022/08/19 11:33:00;;;;;;;;;1.00;1.00;;;;;-147.47;100.00;64613.53;5058542;28;45667;-82